createdAt,value
2023-03-15T00:00:23.536Z,20.57
2023-03-15T00:03:11.504Z,10.53
2023-03-15T00:05:58.650Z,11.08
2023-03-15T00:08:48.724Z,14.33
2023-03-15T00:11:35.920Z,10.13
2023-03-15T00:14:23.320Z,10.03
2023-03-15T00:17:11.742Z,14.20
2023-03-15T00:19:59.135Z,13.15
2023-03-15T00:22:46.401Z,15.25
2023-03-15T00:25:33.775Z,16.10
2023-03-15T00:28:21.271Z,9.98
2023-03-15T00:31:17.070Z,13.20
2023-03-15T00:34:04.562Z,13.07
2023-03-15T00:36:53.217Z,14.55
2023-03-15T00:39:41.010Z,12.37
2023-03-15T00:42:29.422Z,10.60
2023-03-15T00:45:18.036Z,10.98
2023-03-15T00:48:07.504Z,11.28
2023-03-15T00:51:03.715Z,12.80
2023-03-15T00:53:53.157Z,15.32
2023-03-15T00:56:41.217Z,23.27
2023-03-15T00:59:32.117Z,15.68
2023-03-15T01:02:21.494Z,19.42
2023-03-15T01:05:09.790Z,8.90
2023-03-15T01:07:56.950Z,6.67
2023-03-15T01:10:43.944Z,14.33
2023-03-15T01:13:31.293Z,10.75
2023-03-15T01:16:18.949Z,8.65
2023-03-15T01:19:06.304Z,14.35
2023-03-15T01:21:53.525Z,12.30
2023-03-15T01:24:40.669Z,13.72
2023-03-15T01:27:27.969Z,11.75
2023-03-15T01:30:14.879Z,13.80
2023-03-15T01:33:02.160Z,20.62
2023-03-15T01:35:49.942Z,17.15
2023-03-15T01:38:37.117Z,16.70
2023-03-15T01:41:25.851Z,7.67
2023-03-15T01:44:18.147Z,12.05
2023-03-15T01:47:05.466Z,13.88
2023-03-15T01:49:55.896Z,11.18
2023-03-15T01:52:44.354Z,16.23
2023-03-15T01:55:32.498Z,13.93
2023-03-15T01:58:21.353Z,11.03
2023-03-15T02:01:10.478Z,14.10
2023-03-15T02:04:01.469Z,16.73
2023-03-15T02:06:49.249Z,14.03
2023-03-15T02:09:45.418Z,15.63
2023-03-15T02:12:35.988Z,10.10
2023-03-15T02:15:23.453Z,13.70
2023-03-15T02:18:10.851Z,13.20
2023-03-15T02:21:04.091Z,9.78
2023-03-15T02:23:56.997Z,12.15
2023-03-15T02:26:46.947Z,13.90
2023-03-15T02:29:34.246Z,10.85
2023-03-15T02:32:21.310Z,11.95
2023-03-15T02:35:08.905Z,13.98
2023-03-15T02:37:55.853Z,10.60
2023-03-15T02:40:45.122Z,11.78
2023-03-15T02:43:33.791Z,17.40
2023-03-15T02:46:21.888Z,10.93
2023-03-15T02:49:10.890Z,14.98
2023-03-15T02:51:57.994Z,13.35
2023-03-15T02:54:45.053Z,10.58
2023-03-15T02:57:32.382Z,12.23
2023-03-15T03:00:19.928Z,13.83
2023-03-15T03:03:08.766Z,7.83
2023-03-15T03:05:56.007Z,14.28
2023-03-15T03:08:44.897Z,13.15
2023-03-15T03:11:32.119Z,16.82
2023-03-15T03:14:19.483Z,10.88
2023-03-15T03:17:06.885Z,9.58
2023-03-15T03:19:54.306Z,15.23
2023-03-15T03:22:44.657Z,13.13
2023-03-15T03:25:32.094Z,18.48
2023-03-15T03:28:19.129Z,7.72
2023-03-15T03:31:06.373Z,7.78
2023-03-15T03:33:54.083Z,11.12
2023-03-15T03:36:41.151Z,10.68
2023-03-15T03:39:28.507Z,8.80
2023-03-15T03:42:15.602Z,9.90
2023-03-15T03:45:02.789Z,12.30
2023-03-15T03:47:51.573Z,15.28
2023-03-15T03:50:38.539Z,9.50
2023-03-15T03:53:26.276Z,14.35
2023-03-15T03:56:13.623Z,15.45
2023-03-15T03:59:01.004Z,11.73
2023-03-15T04:01:48.440Z,14.25
2023-03-15T04:04:35.748Z,18.40
2023-03-15T04:07:23.164Z,11.48
2023-03-15T04:10:12.341Z,14.87
2023-03-15T04:12:59.370Z,12.03
2023-03-15T04:15:47.132Z,10.23
2023-03-15T04:18:34.034Z,14.45
2023-03-15T04:21:22.972Z,13.85
2023-03-15T04:24:10.216Z,18.20
2023-03-15T04:26:57.815Z,9.68
2023-03-15T04:29:44.885Z,13.20
2023-03-15T04:32:31.946Z,12.70
2023-03-15T04:35:19.186Z,15.38
2023-03-15T04:38:07.221Z,18.85
2023-03-15T04:40:55.247Z,14.13
2023-03-15T04:43:42.677Z,17.62
2023-03-15T04:46:31.531Z,18.70
2023-03-15T04:49:18.871Z,14.73
2023-03-15T04:52:07.847Z,13.43
2023-03-15T04:54:54.860Z,10.88
2023-03-15T04:57:42.268Z,10.95
2023-03-15T05:00:29.618Z,18.73
2023-03-15T05:03:16.597Z,16.17
2023-03-15T05:06:06.197Z,12.03
2023-03-15T05:08:54.455Z,21.27
2023-03-15T05:11:41.730Z,17.17
2023-03-15T05:14:28.747Z,10.65
2023-03-15T05:17:15.962Z,13.70
2023-03-15T05:20:05.099Z,15.80
2023-03-15T05:22:55.628Z,16.90
2023-03-15T05:25:43.226Z,8.28
2023-03-15T05:28:30.197Z,13.93
2023-03-15T05:31:17.514Z,11.57
2023-03-15T05:34:05.097Z,9.18
2023-03-15T05:36:52.629Z,15.60
2023-03-15T05:39:41.244Z,17.52
2023-03-15T05:42:29.246Z,8.53
2023-03-15T05:45:16.773Z,12.47
2023-03-15T05:48:04.004Z,13.05
2023-03-15T05:50:53.201Z,16.25
2023-03-15T05:53:40.381Z,16.67
2023-03-15T05:56:27.697Z,9.13
2023-03-15T05:59:15.106Z,14.58
2023-03-15T06:02:02.208Z,12.85
2023-03-15T06:04:49.588Z,12.28
2023-03-15T06:07:37.370Z,9.48
2023-03-15T06:10:24.658Z,14.00
2023-03-15T06:13:12.141Z,12.45
2023-03-15T06:15:59.528Z,16.80
2023-03-15T06:18:46.897Z,14.83
2023-03-15T06:21:34.184Z,11.78
2023-03-15T06:24:21.262Z,11.15
2023-03-15T06:27:08.652Z,10.48
2023-03-15T06:29:57.311Z,14.70
2023-03-15T06:32:44.743Z,12.60
2023-03-15T06:35:31.807Z,16.95
2023-03-15T06:38:19.306Z,11.78
2023-03-15T06:41:06.535Z,13.48
2023-03-15T06:43:53.828Z,17.92
2023-03-15T06:46:41.141Z,12.58
2023-03-15T06:49:28.426Z,15.35
2023-03-15T06:52:15.512Z,8.10
2023-03-15T06:55:02.788Z,11.35
2023-03-15T06:57:50.055Z,11.55
2023-03-15T07:00:37.363Z,18.75
2023-03-15T07:03:25.385Z,17.40
2023-03-15T07:06:12.409Z,12.47
2023-03-15T07:08:59.805Z,11.50
2023-03-15T07:11:46.856Z,15.95
2023-03-15T07:14:35.307Z,8.85
2023-03-15T07:17:22.307Z,13.98
2023-03-15T07:20:10.899Z,8.25
2023-03-15T07:22:58.286Z,12.63
2023-03-15T07:25:54.768Z,10.10
2023-03-15T07:28:34.642Z,15.90
2023-03-15T07:31:22.202Z,10.82
2023-03-15T07:34:09.643Z,13.78
2023-03-15T07:36:56.741Z,15.88
2023-03-15T07:39:44.057Z,13.75
2023-03-15T07:42:31.146Z,14.55
2023-03-15T07:45:18.930Z,17.30
2023-03-15T07:48:06.336Z,11.25
2023-03-15T07:50:53.461Z,17.12
2023-03-15T07:53:40.920Z,9.38
2023-03-15T07:56:28.276Z,14.78
2023-03-15T07:59:15.564Z,12.88
2023-03-15T08:02:03.246Z,16.02
2023-03-15T08:04:51.325Z,14.33
2023-03-15T08:07:38.612Z,12.78
2023-03-15T08:10:25.854Z,15.55
2023-03-15T08:13:13.998Z,15.98
2023-03-15T08:16:01.492Z,16.32
2023-03-15T08:18:48.511Z,16.23
2023-03-15T08:21:35.646Z,16.97
2023-03-15T08:24:22.875Z,14.00
2023-03-15T08:27:11.065Z,15.55
2023-03-15T08:29:58.230Z,15.70
2023-03-15T08:32:47.703Z,16.40
2023-03-15T08:35:35.301Z,13.40
2023-03-15T08:38:22.958Z,13.95
2023-03-15T08:41:10.378Z,6.67
2023-03-15T08:43:57.505Z,15.38
2023-03-15T08:46:45.041Z,15.00
2023-03-15T08:49:32.894Z,9.95
2023-03-15T08:52:21.378Z,12.33
2023-03-15T08:55:09.039Z,22.35
2023-03-15T08:57:56.241Z,20.80
2023-03-15T09:00:43.688Z,11.93
2023-03-15T09:03:32.618Z,9.93
2023-03-15T09:06:20.109Z,9.03
2023-03-15T09:09:07.480Z,10.13
2023-03-15T09:11:56.036Z,13.53
2023-03-15T09:14:43.800Z,9.78
2023-03-15T09:17:31.656Z,11.97
2023-03-15T09:20:20.780Z,12.73
2023-03-15T09:23:08.082Z,6.33
2023-03-15T09:25:55.190Z,9.20
2023-03-15T09:28:42.296Z,5.67
2023-03-15T09:31:29.555Z,5.62
2023-03-15T09:34:16.961Z,5.60
2023-03-15T09:37:04.507Z,9.53
2023-03-15T09:39:51.800Z,7.53
2023-03-15T09:42:58.742Z,7.25
2023-03-15T09:46:11.988Z,8.53
2023-03-15T09:49:02.024Z,4.03
2023-03-15T09:51:57.679Z,4.83
2023-03-15T09:55:02.801Z,2.35
2023-03-15T09:58:04.184Z,3.98
2023-03-15T10:00:57.219Z,3.58
2023-03-15T10:03:53.007Z,3.12
2023-03-15T10:06:43.569Z,2.42
2023-03-15T10:09:34.407Z,2.00
2023-03-15T10:12:33.726Z,2.08
2023-03-15T10:15:39.087Z,2.50
2023-03-15T10:18:37.947Z,2.50
2023-03-15T10:21:34.054Z,2.35
2023-03-15T10:24:30.291Z,4.17
2023-03-15T10:27:23.824Z,2.27
2023-03-15T10:30:20.360Z,1.90
2023-03-15T10:33:16.205Z,4.45
2023-03-15T10:36:11.594Z,2.08
2023-03-15T10:38:59.178Z,1.72
2023-03-15T10:41:48.832Z,3.27
2023-03-15T10:44:38.108Z,1.87
2023-03-15T10:47:27.127Z,2.27
2023-03-15T10:50:28.478Z,3.50
2023-03-15T10:53:20.188Z,1.42
2023-03-15T10:56:12.058Z,2.12
2023-03-15T10:59:12.415Z,2.17
2023-03-15T11:01:53.631Z,2.62
2023-03-15T11:04:46.613Z,2.25
2023-03-15T11:07:37.921Z,1.95
2023-03-15T11:10:27.592Z,1.90
2023-03-15T11:13:20.715Z,1.50
2023-03-15T11:16:11.061Z,2.58
2023-03-15T11:19:06.431Z,1.47
2023-03-15T11:21:53.763Z,1.57
2023-03-15T11:24:41.418Z,3.67
2023-03-15T11:27:31.714Z,5.28
2023-03-15T11:30:19.595Z,2.30
2023-03-15T11:33:09.373Z,2.17
2023-03-15T11:35:58.963Z,2.95
2023-03-15T11:38:47.134Z,2.80
2023-03-15T11:41:37.499Z,2.40
2023-03-15T11:44:42.501Z,2.62
2023-03-15T11:47:47.595Z,3.92
2023-03-15T11:50:34.658Z,1.85
2023-03-15T11:53:24.210Z,5.60
2023-03-15T11:56:23.491Z,4.47
2023-03-15T11:59:16.236Z,2.30
2023-03-15T12:02:15.558Z,3.60
2023-03-15T12:05:17.704Z,3.58
2023-03-15T12:08:00.956Z,4.92
2023-03-15T12:10:50.593Z,3.47
2023-03-15T12:13:37.800Z,3.75
2023-03-15T12:16:27.901Z,4.60
2023-03-15T12:19:17.374Z,2.12
2023-03-15T12:22:04.776Z,4.50
2023-03-15T12:24:52.026Z,4.67
2023-03-15T12:27:41.369Z,2.95
2023-03-15T12:30:43.676Z,5.20
2023-03-15T12:33:34.331Z,3.42
2023-03-15T12:36:33.294Z,5.10
2023-03-15T12:39:23.520Z,2.95
2023-03-15T12:42:15.460Z,3.80
2023-03-15T12:45:21.370Z,2.27
2023-03-15T12:48:12.967Z,2.45
2023-03-15T12:51:03.704Z,2.27
2023-03-15T12:53:53.024Z,2.60
2023-03-15T12:56:47.436Z,1.57
2023-03-15T12:59:41.158Z,3.52
2023-03-15T13:02:44.630Z,2.33
2023-03-15T13:06:02.810Z,1.95
2023-03-15T13:09:05.392Z,2.62
2023-03-15T13:11:56.113Z,4.12
2023-03-15T13:15:02.057Z,1.55
2023-03-15T13:17:55.023Z,3.65
2023-03-15T13:20:44.497Z,5.55
2023-03-15T13:23:34.777Z,4.22
2023-03-15T13:26:45.699Z,5.90
2023-03-15T13:29:34.162Z,2.40
2023-03-15T13:32:24.223Z,2.52
2023-03-15T13:35:14.260Z,4.72
2023-03-15T13:38:15.568Z,4.65
2023-03-15T13:41:05.699Z,3.92
2023-03-15T13:43:56.024Z,4.72
2023-03-15T13:46:43.021Z,6.87
2023-03-15T13:49:34.545Z,3.37
2023-03-15T13:52:21.702Z,1.82
2023-03-15T13:55:10.130Z,2.37
2023-03-15T13:58:00.450Z,3.98
2023-03-15T14:00:47.881Z,3.17
2023-03-15T14:03:36.588Z,5.03
2023-03-15T14:06:26.595Z,3.50
2023-03-15T14:09:25.580Z,3.52
2023-03-15T14:12:23.085Z,4.40
2023-03-15T14:15:21.444Z,4.00
2023-03-15T14:18:11.757Z,2.65
2023-03-15T14:21:10.482Z,3.22
2023-03-15T14:23:57.577Z,3.02
2023-03-15T14:26:47.132Z,3.02
2023-03-15T14:29:38.600Z,4.42
2023-03-15T14:32:34.147Z,1.70
2023-03-15T14:35:24.543Z,2.75
2023-03-15T14:38:21.036Z,1.25
2023-03-15T14:41:22.926Z,3.40
2023-03-15T14:44:10.024Z,2.65
2023-03-15T14:46:57.451Z,1.25
2023-03-15T14:49:44.540Z,3.25
2023-03-15T14:52:32.891Z,2.40
2023-03-15T14:55:22.980Z,3.40
2023-03-15T14:58:17.161Z,8.28
2023-03-15T15:01:05.056Z,5.58
2023-03-15T15:04:03.176Z,2.45
2023-03-15T15:06:51.438Z,4.58
2023-03-15T15:09:40.173Z,4.10
2023-03-15T15:12:27.801Z,3.22
2023-03-15T15:15:17.801Z,4.47
2023-03-15T15:18:05.471Z,4.78
2023-03-15T15:20:54.727Z,2.12
2023-03-15T15:23:57.413Z,2.12
2023-03-15T15:26:34.465Z,6.42
2023-03-15T15:29:21.464Z,1.30
2023-03-15T15:32:08.866Z,4.05
2023-03-15T15:34:56.188Z,2.20
2023-03-15T15:37:45.780Z,5.70
2023-03-15T15:40:33.949Z,2.98
2023-03-15T15:43:21.151Z,2.33
2023-03-15T15:46:13.102Z,3.85
2023-03-15T15:49:00.232Z,2.62
2023-03-15T15:51:49.741Z,3.67
2023-03-15T15:54:37.482Z,4.80
2023-03-15T15:57:26.580Z,3.83
2023-03-15T16:00:16.372Z,2.33
2023-03-15T16:03:03.447Z,3.85
2023-03-15T16:05:50.573Z,1.85
2023-03-15T16:08:41.031Z,7.55
2023-03-15T16:11:29.395Z,5.80
2023-03-15T16:14:16.901Z,4.10
2023-03-15T16:17:04.209Z,7.42
2023-03-15T16:19:52.476Z,4.00
2023-03-15T16:22:42.586Z,3.42
2023-03-15T16:25:33.649Z,2.87
2023-03-15T16:28:20.564Z,2.58
2023-03-15T16:31:07.885Z,5.42
2023-03-15T16:33:54.894Z,6.78
2023-03-15T16:36:48.987Z,3.75
2023-03-15T16:39:37.717Z,5.10
2023-03-15T16:42:25.677Z,1.98
2023-03-15T16:45:14.107Z,4.72
2023-03-15T16:48:01.211Z,3.90
2023-03-15T16:50:48.509Z,2.67
2023-03-15T16:53:37.256Z,2.92
2023-03-15T16:56:25.251Z,2.70
2023-03-15T16:59:15.439Z,6.55
2023-03-15T17:02:02.979Z,6.28
2023-03-15T17:04:50.884Z,8.68
2023-03-15T17:07:39.866Z,3.65
2023-03-15T17:10:30.770Z,3.83
2023-03-15T17:13:21.170Z,4.83
2023-03-15T17:16:12.027Z,5.03
2023-03-15T17:18:59.313Z,3.80
2023-03-15T17:21:46.887Z,3.50
2023-03-15T17:24:34.522Z,3.05
2023-03-15T17:27:24.792Z,6.22
2023-03-15T17:30:26.632Z,8.35
2023-03-15T17:33:13.811Z,2.67
2023-03-15T17:36:01.457Z,5.10
2023-03-15T17:38:49.144Z,2.75
2023-03-15T17:41:37.809Z,8.25
2023-03-15T17:44:24.990Z,4.80
2023-03-15T17:47:14.916Z,5.72
2023-03-15T17:50:02.003Z,4.03
2023-03-15T17:52:52.349Z,5.87
2023-03-15T17:55:39.802Z,3.42
2023-03-15T17:58:27.374Z,4.87
2023-03-15T18:01:19.328Z,3.27
2023-03-15T18:04:09.686Z,3.80
2023-03-15T18:06:56.918Z,4.95
2023-03-15T18:09:44.203Z,10.78
2023-03-15T18:12:31.423Z,6.72
2023-03-15T18:15:21.304Z,6.80
2023-03-15T18:18:08.474Z,11.28
2023-03-15T18:20:55.475Z,4.10
2023-03-15T18:23:42.745Z,7.60
2023-03-15T18:26:29.992Z,5.45
2023-03-15T18:29:17.368Z,8.13
2023-03-15T18:32:05.158Z,8.15
2023-03-15T18:34:52.381Z,6.97
2023-03-15T18:37:40.110Z,7.45
2023-03-15T18:40:30.040Z,6.97
2023-03-15T18:43:17.035Z,10.70
2023-03-15T18:46:04.240Z,7.25
2023-03-15T18:48:53.320Z,8.75
2023-03-15T18:51:41.426Z,8.93
2023-03-15T18:54:28.774Z,7.33
2023-03-15T18:57:17.033Z,7.45
2023-03-15T19:00:13.705Z,10.28
2023-03-15T19:03:04.384Z,6.80
2023-03-15T19:05:51.537Z,7.20
2023-03-15T19:08:39.865Z,5.87
2023-03-15T19:11:28.885Z,5.65
2023-03-15T19:14:15.834Z,8.45
2023-03-15T19:17:03.120Z,8.35
2023-03-15T19:19:50.582Z,10.80
2023-03-15T19:22:37.673Z,4.95
2023-03-15T19:25:25.098Z,7.33
2023-03-15T19:28:12.432Z,11.25
2023-03-15T19:30:59.950Z,6.90
2023-03-15T19:33:47.077Z,5.35
2023-03-15T19:36:34.270Z,10.13
2023-03-15T19:39:21.607Z,6.30
2023-03-15T19:42:08.840Z,6.90
2023-03-15T19:44:55.978Z,8.40
2023-03-15T19:47:43.799Z,8.60
2023-03-15T19:50:32.686Z,9.85
2023-03-15T19:53:19.977Z,5.45
2023-03-15T19:56:09.423Z,9.13
2023-03-15T19:58:57.070Z,6.50
2023-03-15T20:01:44.441Z,7.20
2023-03-15T20:04:31.764Z,9.25
2023-03-15T20:07:19.179Z,7.03
2023-03-15T20:10:08.597Z,6.67
2023-03-15T20:12:57.805Z,9.30
2023-03-15T20:15:45.419Z,5.92
2023-03-15T20:18:32.338Z,11.15
2023-03-15T20:21:20.327Z,8.80
2023-03-15T20:24:08.640Z,6.35
2023-03-15T20:26:55.717Z,8.55
2023-03-15T20:29:43.191Z,6.28
2023-03-15T20:32:30.580Z,4.62
2023-03-15T20:35:17.601Z,8.90
2023-03-15T20:38:06.465Z,6.25
2023-03-15T20:40:57.278Z,7.65
2023-03-15T20:43:44.289Z,9.60
2023-03-15T20:46:31.728Z,6.75
2023-03-15T20:49:19.088Z,11.63
2023-03-15T20:52:06.450Z,7.35
2023-03-15T20:54:54.074Z,7.85
2023-03-15T20:57:42.836Z,8.78
2023-03-15T21:00:30.079Z,8.73
2023-03-15T21:03:18.343Z,9.68
2023-03-15T21:06:06.766Z,10.13
2023-03-15T21:08:53.709Z,9.55
2023-03-15T21:11:40.928Z,7.30
2023-03-15T21:14:28.155Z,12.47
2023-03-15T21:17:15.683Z,13.13
2023-03-15T21:20:04.410Z,9.10
2023-03-15T21:22:51.807Z,10.65
2023-03-15T21:25:39.464Z,8.78
2023-03-15T21:28:27.169Z,8.53
2023-03-15T21:31:14.472Z,7.50
2023-03-15T21:34:01.625Z,20.88
2023-03-15T21:36:48.851Z,6.45
2023-03-15T21:39:37.850Z,10.78
2023-03-15T21:42:25.202Z,10.98
2023-03-15T21:45:12.669Z,11.20
2023-03-15T21:47:59.855Z,9.55
2023-03-15T21:50:47.130Z,7.72
2023-03-15T21:53:35.643Z,7.25
2023-03-15T21:56:26.014Z,11.15
2023-03-15T21:59:13.534Z,7.37
2023-03-15T22:02:01.632Z,8.45
2023-03-15T22:04:48.934Z,7.92
2023-03-15T22:07:35.988Z,7.55
2023-03-15T22:10:23.741Z,8.05
2023-03-15T22:13:11.280Z,9.68
2023-03-15T22:15:58.643Z,7.58
2023-03-15T22:18:46.267Z,6.78
2023-03-15T22:21:33.234Z,7.35
2023-03-15T22:24:20.525Z,6.55
2023-03-15T22:27:07.821Z,9.78
2023-03-15T22:29:55.125Z,5.05
2023-03-15T22:32:45.643Z,7.15
2023-03-15T22:35:32.764Z,8.35
2023-03-15T22:38:19.957Z,7.80
2023-03-15T22:41:10.080Z,15.72
2023-03-15T22:43:57.609Z,15.20
2023-03-15T22:46:44.726Z,14.75
2023-03-15T22:49:32.175Z,14.30
2023-03-15T22:52:19.456Z,18.40
2023-03-15T22:55:07.741Z,12.05
2023-03-15T22:57:54.956Z,12.43
2023-03-15T23:00:42.471Z,15.75
2023-03-15T23:03:29.458Z,13.48
2023-03-15T23:06:16.958Z,10.78
2023-03-15T23:09:06.280Z,12.33
2023-03-15T23:11:53.027Z,14.55
2023-03-15T23:14:41.296Z,10.43
2023-03-15T23:17:28.534Z,14.47
2023-03-15T23:20:18.449Z,8.65
2023-03-15T23:23:05.826Z,9.68
2023-03-15T23:25:53.825Z,8.68
2023-03-15T23:28:41.130Z,9.78
2023-03-15T23:31:28.471Z,7.60
2023-03-15T23:34:15.974Z,8.98
2023-03-15T23:37:03.190Z,6.58
2023-03-15T23:39:52.668Z,10.15
2023-03-15T23:42:39.695Z,8.35
2023-03-15T23:45:31.700Z,10.38
2023-03-15T23:48:19.313Z,6.58
2023-03-15T23:51:06.670Z,6.80
2023-03-15T23:53:54.053Z,7.40
2023-03-15T23:56:41.442Z,6.00
2023-03-15T23:59:29.065Z,6.78
